sensor_id;sensor_type;location;lat;lon;timestamp;pressure;altitude;pressure_sealevel;temperature;humidity
76590;BME280;65471;55.908;37.880;2023-11-21T00:00:46;99300.25;;;-7.88;76.42
76590;BME280;65471;55.908;37.880;2023-11-21T00:03:14;99307.94;;;-7.96;76.48
76590;BME280;65471;55.908;37.880;2023-11-21T00:05:43;99291.00;;;-8.04;76.57
76590;BME280;65471;55.908;37.880;2023-11-21T00:08:10;99299.47;;;-8.00;76.39
76590;BME280;65471;55.908;37.880;2023-11-21T00:10:37;99296.72;;;-7.99;76.49
76590;BME280;65471;55.908;37.880;2023-11-21T00:13:05;99291.13;;;-8.05;76.79
76590;BME280;65471;55.908;37.880;2023-11-21T00:15:32;99300.19;;;-7.98;76.60
76590;BME280;65471;55.908;37.880;2023-11-21T00:17:59;99298.41;;;-7.98;76.55
76590;BME280;65471;55.908;37.880;2023-11-21T00:20:26;99299.22;;;-7.97;77.10
76590;BME280;65471;55.908;37.880;2023-11-21T00:22:54;99285.97;;;-7.95;76.81
76590;BME280;65471;55.908;37.880;2023-11-21T00:25:20;99287.41;;;-7.91;76.93
76590;BME280;65471;55.908;37.880;2023-11-21T00:27:47;99289.59;;;-7.96;76.51
76590;BME280;65471;55.908;37.880;2023-11-21T00:30:14;99291.34;;;-7.97;77.06
76590;BME280;65471;55.908;37.880;2023-11-21T00:32:41;99294.72;;;-7.95;76.36
76590;BME280;65471;55.908;37.880;2023-11-21T00:35:09;99295.28;;;-7.91;76.93
76590;BME280;65471;55.908;37.880;2023-11-21T00:37:35;99295.75;;;-7.86;76.73
76590;BME280;65471;55.908;37.880;2023-11-21T00:40:03;99297.28;;;-7.84;77.07
76590;BME280;65471;55.908;37.880;2023-11-21T00:42:33;99297.16;;;-7.82;76.96
76590;BME280;65471;55.908;37.880;2023-11-21T00:45:00;99298.25;;;-7.85;76.09
76590;BME280;65471;55.908;37.880;2023-11-21T00:47:32;99297.63;;;-7.88;76.81
76590;BME280;65471;55.908;37.880;2023-11-21T00:49:59;99298.50;;;-7.88;76.38
76590;BME280;65471;55.908;37.880;2023-11-21T00:52:26;99288.34;;;-7.92;76.81
76590;BME280;65471;55.908;37.880;2023-11-21T00:54:53;99290.97;;;-7.92;76.77
76590;BME280;65471;55.908;37.880;2023-11-21T00:57:20;99286.25;;;-7.99;76.28
76590;BME280;65471;55.908;37.880;2023-11-21T00:59:47;99282.78;;;-7.99;76.31
76590;BME280;65471;55.908;37.880;2023-11-21T01:02:13;99294.94;;;-7.98;76.35
76590;BME280;65471;55.908;37.880;2023-11-21T01:04:41;99283.06;;;-8.02;76.68
76590;BME280;65471;55.908;37.880;2023-11-21T01:07:08;99282.97;;;-8.12;76.43
76590;BME280;65471;55.908;37.880;2023-11-21T01:09:35;99279.13;;;-8.08;76.83
76590;BME280;65471;55.908;37.880;2023-11-21T01:12:02;99272.91;;;-8.07;76.10
76590;BME280;65471;55.908;37.880;2023-11-21T01:14:29;99278.63;;;-8.02;76.27
76590;BME280;65471;55.908;37.880;2023-11-21T01:16:55;99275.06;;;-8.01;76.81
76590;BME280;65471;55.908;37.880;2023-11-21T01:19:22;99287.19;;;-8.00;76.67
76590;BME280;65471;55.908;37.880;2023-11-21T01:21:50;99291.63;;;-8.00;76.92
76590;BME280;65471;55.908;37.880;2023-11-21T01:24:18;99287.31;;;-8.01;76.97
76590;BME280;65471;55.908;37.880;2023-11-21T01:26:45;99285.66;;;-8.02;76.57
76590;BME280;65471;55.908;37.880;2023-11-21T01:29:13;99283.16;;;-8.04;76.07
76590;BME280;65471;55.908;37.880;2023-11-21T01:31:40;99271.13;;;-8.06;76.65
76590;BME280;65471;55.908;37.880;2023-11-21T01:34:08;99278.66;;;-8.13;76.11
76590;BME280;65471;55.908;37.880;2023-11-21T01:36:35;99277.84;;;-8.13;76.09
76590;BME280;65471;55.908;37.880;2023-11-21T01:39:02;99275.09;;;-8.12;76.91
76590;BME280;65471;55.908;37.880;2023-11-21T01:41:34;99283.66;;;-8.10;77.14
76590;BME280;65471;55.908;37.880;2023-11-21T01:44:01;99280.78;;;-8.07;76.86
76590;BME280;65471;55.908;37.880;2023-11-21T01:46:29;99276.81;;;-8.01;76.04
76590;BME280;65471;55.908;37.880;2023-11-21T01:48:56;99282.66;;;-7.98;76.60
76590;BME280;65471;55.908;37.880;2023-11-21T01:51:23;99283.88;;;-8.02;76.92
76590;BME280;65471;55.908;37.880;2023-11-21T01:53:50;99277.19;;;-8.06;76.67
76590;BME280;65471;55.908;37.880;2023-11-21T01:56:17;99278.41;;;-8.10;76.47
76590;BME280;65471;55.908;37.880;2023-11-21T01:58:45;99287.34;;;-8.12;76.20
76590;BME280;65471;55.908;37.880;2023-11-21T02:01:13;99281.41;;;-8.15;76.31
76590;BME280;65471;55.908;37.880;2023-11-21T02:03:41;99287.97;;;-8.20;76.84
76590;BME280;65471;55.908;37.880;2023-11-21T02:06:08;99286.19;;;-8.20;75.99
76590;BME280;65471;55.908;37.880;2023-11-21T02:08:35;99293.22;;;-8.20;76.15
76590;BME280;65471;55.908;37.880;2023-11-21T02:11:05;99282.63;;;-8.19;76.45
76590;BME280;65471;55.908;37.880;2023-11-21T02:13:32;99283.56;;;-8.20;76.80
76590;BME280;65471;55.908;37.880;2023-11-21T02:15:59;99284.16;;;-8.16;76.42
76590;BME280;65471;55.908;37.880;2023-11-21T02:18:27;99274.50;;;-8.16;75.88
76590;BME280;65471;55.908;37.880;2023-11-21T02:20:56;99273.53;;;-8.15;76.55
76590;BME280;65471;55.908;37.880;2023-11-21T02:23:23;99275.34;;;-8.15;76.40
76590;BME280;65471;55.908;37.880;2023-11-21T02:25:55;99274.63;;;-8.17;76.15
76590;BME280;65471;55.908;37.880;2023-11-21T02:28:22;99266.19;;;-8.21;76.51
76590;BME280;65471;55.908;37.880;2023-11-21T02:30:53;99273.44;;;-8.24;75.93
76590;BME280;65471;55.908;37.880;2023-11-21T02:33:22;99279.06;;;-8.29;76.38
76590;BME280;65471;55.908;37.880;2023-11-21T02:35:49;99276.81;;;-8.34;76.52
76590;BME280;65471;55.908;37.880;2023-11-21T02:38:21;99278.72;;;-8.36;76.45
76590;BME280;65471;55.908;37.880;2023-11-21T02:40:48;99282.91;;;-8.33;76.37
76590;BME280;65471;55.908;37.880;2023-11-21T02:43:16;99272.53;;;-8.35;76.40
76590;BME280;65471;55.908;37.880;2023-11-21T02:45:43;99281.94;;;-8.32;76.07
76590;BME280;65471;55.908;37.880;2023-11-21T02:48:10;99283.47;;;-8.29;75.79
76590;BME280;65471;55.908;37.880;2023-11-21T02:50:37;99285.00;;;-8.27;76.20
76590;BME280;65471;55.908;37.880;2023-11-21T02:53:06;99287.16;;;-8.21;76.32
76590;BME280;65471;55.908;37.880;2023-11-21T02:55:32;99298.47;;;-8.20;75.64
76590;BME280;65471;55.908;37.880;2023-11-21T02:58:02;99301.47;;;-8.25;76.00
76590;BME280;65471;55.908;37.880;2023-11-21T03:00:33;99299.94;;;-8.27;75.96
76590;BME280;65471;55.908;37.880;2023-11-21T03:03:00;99295.25;;;-8.24;75.43
76590;BME280;65471;55.908;37.880;2023-11-21T03:05:27;99299.53;;;-8.23;75.82
76590;BME280;65471;55.908;37.880;2023-11-21T03:07:56;99305.41;;;-8.19;75.91
76590;BME280;65471;55.908;37.880;2023-11-21T03:10:23;99306.34;;;-8.20;75.91
76590;BME280;65471;55.908;37.880;2023-11-21T03:12:50;99313.25;;;-8.19;76.22
76590;BME280;65471;55.908;37.880;2023-11-21T03:15:17;99311.22;;;-8.16;75.74
76590;BME280;65471;55.908;37.880;2023-11-21T03:17:44;99313.84;;;-8.16;76.12
76590;BME280;65471;55.908;37.880;2023-11-21T03:20:11;99304.41;;;-8.18;75.86
76590;BME280;65471;55.908;37.880;2023-11-21T03:22:38;99304.66;;;-8.21;75.54
76590;BME280;65471;55.908;37.880;2023-11-21T03:25:07;99311.84;;;-8.23;76.06
76590;BME280;65471;55.908;37.880;2023-11-21T03:27:37;99306.72;;;-8.25;75.88
76590;BME280;65471;55.908;37.880;2023-11-21T03:30:08;99311.09;;;-8.25;76.10
76590;BME280;65471;55.908;37.880;2023-11-21T03:32:35;99307.41;;;-8.23;75.79
76590;BME280;65471;55.908;37.880;2023-11-21T03:35:03;99305.28;;;-8.18;75.85
76590;BME280;65471;55.908;37.880;2023-11-21T03:37:30;99320.50;;;-8.11;75.32
76590;BME280;65471;55.908;37.880;2023-11-21T03:39:57;99319.94;;;-8.15;75.88
76590;BME280;65471;55.908;37.880;2023-11-21T03:42:24;99331.94;;;-8.12;75.87
76590;BME280;65471;55.908;37.880;2023-11-21T03:44:53;99329.19;;;-8.11;75.59
76590;BME280;65471;55.908;37.880;2023-11-21T03:47:21;99330.03;;;-8.10;76.00
76590;BME280;65471;55.908;37.880;2023-11-21T03:49:48;99331.94;;;-8.12;76.02
76590;BME280;65471;55.908;37.880;2023-11-21T03:52:15;99329.56;;;-8.16;76.53
76590;BME280;65471;55.908;37.880;2023-11-21T03:54:43;99332.31;;;-8.17;75.56
76590;BME280;65471;55.908;37.880;2023-11-21T03:57:11;99332.44;;;-8.19;75.87
76590;BME280;65471;55.908;37.880;2023-11-21T03:59:42;99331.63;;;-8.19;75.43
76590;BME280;65471;55.908;37.880;2023-11-21T04:02:09;99337.56;;;-8.17;76.47
76590;BME280;65471;55.908;37.880;2023-11-21T04:04:36;99338.03;;;-8.12;76.54
76590;BME280;65471;55.908;37.880;2023-11-21T04:07:04;99335.66;;;-8.15;75.82
76590;BME280;65471;55.908;37.880;2023-11-21T04:09:31;99338.06;;;-8.23;75.73
76590;BME280;65471;55.908;37.880;2023-11-21T04:11:58;99330.19;;;-8.23;75.93
76590;BME280;65471;55.908;37.880;2023-11-21T04:14:25;99340.56;;;-8.22;75.85
76590;BME280;65471;55.908;37.880;2023-11-21T04:16:52;99338.50;;;-8.18;76.30
76590;BME280;65471;55.908;37.880;2023-11-21T04:19:20;99325.78;;;-8.23;75.93
76590;BME280;65471;55.908;37.880;2023-11-21T04:21:48;99343.75;;;-8.18;76.46
76590;BME280;65471;55.908;37.880;2023-11-21T04:24:15;99345.69;;;-8.20;76.77
76590;BME280;65471;55.908;37.880;2023-11-21T04:26:43;99348.44;;;-8.22;76.17
76590;BME280;65471;55.908;37.880;2023-11-21T04:29:10;99342.34;;;-8.22;76.50
76590;BME280;65471;55.908;37.880;2023-11-21T04:31:37;99345.69;;;-8.20;76.99
76590;BME280;65471;55.908;37.880;2023-11-21T04:34:04;99338.28;;;-8.15;76.21
76590;BME280;65471;55.908;37.880;2023-11-21T04:36:31;99341.75;;;-8.15;76.90
76590;BME280;65471;55.908;37.880;2023-11-21T04:38:58;99352.22;;;-8.15;76.30
76590;BME280;65471;55.908;37.880;2023-11-21T04:41:25;99351.03;;;-8.10;76.73
76590;BME280;65471;55.908;37.880;2023-11-21T04:43:52;99346.72;;;-8.11;76.30
76590;BME280;65471;55.908;37.880;2023-11-21T04:46:19;99365.69;;;-8.08;76.68
76590;BME280;65471;55.908;37.880;2023-11-21T04:48:46;99360.66;;;-8.11;77.04
76590;BME280;65471;55.908;37.880;2023-11-21T04:51:13;99362.84;;;-8.16;76.46
76590;BME280;65471;55.908;37.880;2023-11-21T04:53:40;99359.38;;;-8.17;76.46
76590;BME280;65471;55.908;37.880;2023-11-21T04:56:07;99357.00;;;-8.20;76.34
76590;BME280;65471;55.908;37.880;2023-11-21T04:58:34;99363.91;;;-8.19;76.98
76590;BME280;65471;55.908;37.880;2023-11-21T05:01:02;99361.28;;;-8.19;77.04
76590;BME280;65471;55.908;37.880;2023-11-21T05:03:34;99359.97;;;-8.13;76.73
76590;BME280;65471;55.908;37.880;2023-11-21T05:06:02;99351.84;;;-8.10;76.93
76590;BME280;65471;55.908;37.880;2023-11-21T05:08:31;99363.41;;;-8.12;77.05
76590;BME280;65471;55.908;37.880;2023-11-21T05:10:58;99356.16;;;-8.20;76.63
76590;BME280;65471;55.908;37.880;2023-11-21T05:13:25;99366.41;;;-8.17;76.26
76590;BME280;65471;55.908;37.880;2023-11-21T05:15:54;99359.50;;;-8.18;76.92
76590;BME280;65471;55.908;37.880;2023-11-21T05:18:23;99363.56;;;-8.25;76.42
76590;BME280;65471;55.908;37.880;2023-11-21T05:20:53;99371.31;;;-8.24;76.72
76590;BME280;65471;55.908;37.880;2023-11-21T05:23:20;99375.47;;;-8.21;76.79
76590;BME280;65471;55.908;37.880;2023-11-21T05:25:48;99375.22;;;-8.18;76.49
76590;BME280;65471;55.908;37.880;2023-11-21T05:28:15;99371.91;;;-8.20;76.60
76590;BME280;65471;55.908;37.880;2023-11-21T05:30:41;99376.22;;;-8.19;76.53
76590;BME280;65471;55.908;37.880;2023-11-21T05:33:08;99373.81;;;-8.22;77.00
76590;BME280;65471;55.908;37.880;2023-11-21T05:35:36;99377.41;;;-8.23;76.47
76590;BME280;65471;55.908;37.880;2023-11-21T05:38:03;99387.03;;;-8.24;77.39
76590;BME280;65471;55.908;37.880;2023-11-21T05:40:30;99379.03;;;-8.22;76.43
76590;BME280;65471;55.908;37.880;2023-11-21T05:42:57;99373.22;;;-8.26;76.82
76590;BME280;65471;55.908;37.880;2023-11-21T05:45:24;99365.94;;;-8.22;77.50
76590;BME280;65471;55.908;37.880;2023-11-21T05:47:51;99370.72;;;-8.16;77.31
76590;BME280;65471;55.908;37.880;2023-11-21T05:50:18;99368.78;;;-8.14;77.54
76590;BME280;65471;55.908;37.880;2023-11-21T05:52:45;99375.00;;;-8.15;77.43
76590;BME280;65471;55.908;37.880;2023-11-21T05:55:13;99375.00;;;-8.15;77.13
76590;BME280;65471;55.908;37.880;2023-11-21T05:57:42;99389.66;;;-8.12;77.57
76590;BME280;65471;55.908;37.880;2023-11-21T06:00:12;99387.66;;;-8.20;77.47
76590;BME280;65471;55.908;37.880;2023-11-21T06:02:49;99389.78;;;-8.25;78.15
76590;BME280;65471;55.908;37.880;2023-11-21T06:05:25;99384.91;;;-8.30;78.08
76590;BME280;65471;55.908;37.880;2023-11-21T06:07:54;99378.59;;;-8.27;78.24
76590;BME280;65471;55.908;37.880;2023-11-21T06:10:22;99387.88;;;-8.23;78.05
76590;BME280;65471;55.908;37.880;2023-11-21T06:12:52;99394.56;;;-8.19;78.67
76590;BME280;65471;55.908;37.880;2023-11-21T06:15:20;99393.25;;;-8.25;78.02
76590;BME280;65471;55.908;37.880;2023-11-21T06:17:51;99394.19;;;-8.26;78.22
76590;BME280;65471;55.908;37.880;2023-11-21T06:20:21;99401.00;;;-8.23;79.05
76590;BME280;65471;55.908;37.880;2023-11-21T06:22:51;99398.50;;;-8.25;78.94
76590;BME280;65471;55.908;37.880;2023-11-21T06:25:19;99398.13;;;-8.20;79.04
76590;BME280;65471;55.908;37.880;2023-11-21T06:27:47;99392.41;;;-8.14;79.10
76590;BME280;65471;55.908;37.880;2023-11-21T06:30:15;99386.91;;;-8.11;78.78
76590;BME280;65471;55.908;37.880;2023-11-21T06:32:43;99394.06;;;-8.13;79.08
76590;BME280;65471;55.908;37.880;2023-11-21T06:35:14;99390.84;;;-8.17;79.30
76590;BME280;65471;55.908;37.880;2023-11-21T06:37:44;99399.81;;;-8.19;79.39
76590;BME280;65471;55.908;37.880;2023-11-21T06:40:18;99403.38;;;-8.09;80.01
76590;BME280;65471;55.908;37.880;2023-11-21T06:42:46;99403.94;;;-8.05;79.80
76590;BME280;65471;55.908;37.880;2023-11-21T06:45:15;99413.25;;;-8.01;79.80
76590;BME280;65471;55.908;37.880;2023-11-21T06:47:42;99400.25;;;-8.03;79.50
76590;BME280;65471;55.908;37.880;2023-11-21T06:50:10;99411.59;;;-8.02;79.55
76590;BME280;65471;55.908;37.880;2023-11-21T06:52:37;99410.88;;;-8.04;79.66
76590;BME280;65471;55.908;37.880;2023-11-21T06:55:06;99402.88;;;-8.03;79.96
76590;BME280;65471;55.908;37.880;2023-11-21T06:57:35;99415.16;;;-8.03;79.81
76590;BME280;65471;55.908;37.880;2023-11-21T07:00:03;99400.84;;;-7.99;79.40
76590;BME280;65471;55.908;37.880;2023-11-21T07:02:33;99392.59;;;-7.94;79.48
76590;BME280;65471;55.908;37.880;2023-11-21T07:05:00;99396.53;;;-7.89;79.81
76590;BME280;65471;55.908;37.880;2023-11-21T07:07:30;99396.91;;;-7.93;79.22
76590;BME280;65471;55.908;37.880;2023-11-21T07:09:57;99401.44;;;-7.95;79.23
76590;BME280;65471;55.908;37.880;2023-11-21T07:12:24;99401.19;;;-7.92;79.88
76590;BME280;65471;55.908;37.880;2023-11-21T07:14:52;99408.72;;;-7.88;79.32
76590;BME280;65471;55.908;37.880;2023-11-21T07:17:20;99414.91;;;-7.89;79.99
76590;BME280;65471;55.908;37.880;2023-11-21T07:19:47;99417.53;;;-7.89;79.21
76590;BME280;65471;55.908;37.880;2023-11-21T07:22:14;99416.69;;;-7.89;79.37
76590;BME280;65471;55.908;37.880;2023-11-21T07:24:43;99418.03;;;-7.95;79.35
76590;BME280;65471;55.908;37.880;2023-11-21T07:27:10;99414.78;;;-7.99;79.43
76590;BME280;65471;55.908;37.880;2023-11-21T07:29:36;99424.47;;;-7.99;80.21
76590;BME280;65471;55.908;37.880;2023-11-21T07:32:04;99417.19;;;-8.07;80.01
76590;BME280;65471;55.908;37.880;2023-11-21T07:34:32;99416.59;;;-8.10;79.63
76590;BME280;65471;55.908;37.880;2023-11-21T07:36:59;99413.88;;;-8.09;79.73
76590;BME280;65471;55.908;37.880;2023-11-21T07:39:26;99410.75;;;-8.03;80.40
76590;BME280;65471;55.908;37.880;2023-11-21T07:41:53;99417.16;;;-7.95;80.10
76590;BME280;65471;55.908;37.880;2023-11-21T07:44:19;99409.66;;;-7.89;80.50
76590;BME280;65471;55.908;37.880;2023-11-21T07:46:47;99407.72;;;-7.87;80.03
76590;BME280;65471;55.908;37.880;2023-11-21T07:49:16;99403.34;;;-7.86;79.84
76590;BME280;65471;55.908;37.880;2023-11-21T07:51:47;99414.28;;;-7.81;79.95
76590;BME280;65471;55.908;37.880;2023-11-21T07:54:14;99397.56;;;-7.80;79.86
76590;BME280;65471;55.908;37.880;2023-11-21T07:56:42;99409.97;;;-7.71;79.83
76590;BME280;65471;55.908;37.880;2023-11-21T07:59:10;99399.22;;;-7.68;80.03
76590;BME280;65471;55.908;37.880;2023-11-21T08:01:37;99400.03;;;-7.67;79.59
76590;BME280;65471;55.908;37.880;2023-11-21T08:04:05;99395.88;;;-7.70;79.14
76590;BME280;65471;55.908;37.880;2023-11-21T08:06:33;99391.72;;;-7.72;79.91
76590;BME280;65471;55.908;37.880;2023-11-21T08:09:00;99396.84;;;-7.71;79.25
76590;BME280;65471;55.908;37.880;2023-11-21T08:11:27;99398.38;;;-7.68;79.42
76590;BME280;65471;55.908;37.880;2023-11-21T08:13:58;99399.22;;;-7.68;79.20
76590;BME280;65471;55.908;37.880;2023-11-21T08:16:26;99399.91;;;-7.66;79.34
76590;BME280;65471;55.908;37.880;2023-11-21T08:18:54;99399.34;;;-7.69;79.21
76590;BME280;65471;55.908;37.880;2023-11-21T08:21:21;99402.94;;;-7.70;78.96
76590;BME280;65471;55.908;37.880;2023-11-21T08:23:50;99391.47;;;-7.69;78.98
76590;BME280;65471;55.908;37.880;2023-11-21T08:26:24;99395.19;;;-7.72;78.48
76590;BME280;65471;55.908;37.880;2023-11-21T08:28:51;99398.63;;;-7.71;78.92
76590;BME280;65471;55.908;37.880;2023-11-21T08:31:25;99407.25;;;-7.81;78.30
76590;BME280;65471;55.908;37.880;2023-11-21T08:33:53;99401.66;;;-7.87;77.78
76590;BME280;65471;55.908;37.880;2023-11-21T08:36:24;99403.47;;;-7.88;78.58
76590;BME280;65471;55.908;37.880;2023-11-21T08:38:51;99394.59;;;-7.87;78.06
76590;BME280;65471;55.908;37.880;2023-11-21T08:41:21;99395.09;;;-7.82;78.62
76590;BME280;65471;55.908;37.880;2023-11-21T08:43:52;99396.13;;;-7.73;78.52
76590;BME280;65471;55.908;37.880;2023-11-21T08:46:22;99397.41;;;-7.67;78.51
76590;BME280;65471;55.908;37.880;2023-11-21T08:48:49;99391.09;;;-7.65;78.28
76590;BME280;65471;55.908;37.880;2023-11-21T08:51:19;99385.59;;;-7.61;78.38
76590;BME280;65471;55.908;37.880;2023-11-21T08:53:46;99401.84;;;-7.68;77.31
76590;BME280;65471;55.908;37.880;2023-11-21T08:56:14;99396.59;;;-7.68;77.37
76590;BME280;65471;55.908;37.880;2023-11-21T08:58:41;99401.22;;;-7.60;77.66
76590;BME280;65471;55.908;37.880;2023-11-21T09:01:08;99409.56;;;-7.55;76.99
76590;BME280;65471;55.908;37.880;2023-11-21T09:03:35;99400.22;;;-7.48;77.40
76590;BME280;65471;55.908;37.880;2023-11-21T09:06:03;99400.06;;;-7.35;76.81
76590;BME280;65471;55.908;37.880;2023-11-21T09:08:31;99401.78;;;-7.24;77.38
76590;BME280;65471;55.908;37.880;2023-11-21T09:10:58;99409.31;;;-7.19;76.84
76590;BME280;65471;55.908;37.880;2023-11-21T09:13:25;99411.16;;;-7.10;75.83
76590;BME280;65471;55.908;37.880;2023-11-21T09:15:53;99413.28;;;-7.04;76.30
76590;BME280;65471;55.908;37.880;2023-11-21T09:18:20;99422.88;;;-7.14;75.77
76590;BME280;65471;55.908;37.880;2023-11-21T09:20:47;99418.53;;;-7.25;75.37
76590;BME280;65471;55.908;37.880;2023-11-21T09:23:14;99410.19;;;-7.30;76.26
76590;BME280;65471;55.908;37.880;2023-11-21T09:25:41;99415.56;;;-7.32;76.04
76590;BME280;65471;55.908;37.880;2023-11-21T09:28:08;99420.81;;;-7.32;75.91
76590;BME280;65471;55.908;37.880;2023-11-21T09:30:35;99424.84;;;-7.28;75.45
76590;BME280;65471;55.908;37.880;2023-11-21T09:33:03;99423.91;;;-7.26;75.74
76590;BME280;65471;55.908;37.880;2023-11-21T09:35:32;99431.06;;;-7.29;75.46
76590;BME280;65471;55.908;37.880;2023-11-21T09:38:00;99431.91;;;-7.28;75.21
76590;BME280;65471;55.908;37.880;2023-11-21T09:40:29;99431.06;;;-7.29;74.85
76590;BME280;65471;55.908;37.880;2023-11-21T09:42:58;99425.69;;;-7.27;75.19
76590;BME280;65471;55.908;37.880;2023-11-21T09:45:29;99430.09;;;-7.28;75.34
76590;BME280;65471;55.908;37.880;2023-11-21T09:48:01;99433.31;;;-7.24;74.60
76590;BME280;65471;55.908;37.880;2023-11-21T09:50:28;99422.69;;;-7.22;75.47
76590;BME280;65471;55.908;37.880;2023-11-21T09:53:09;99438.06;;;-7.18;75.05
76590;BME280;65471;55.908;37.880;2023-11-21T09:55:39;99439.84;;;-7.18;75.47
76590;BME280;65471;55.908;37.880;2023-11-21T09:58:09;99433.06;;;-7.21;75.19
76590;BME280;65471;55.908;37.880;2023-11-21T10:00:43;99432.81;;;-7.18;74.79
76590;BME280;65471;55.908;37.880;2023-11-21T10:03:11;99437.00;;;-7.15;74.54
76590;BME280;65471;55.908;37.880;2023-11-21T10:05:39;99442.00;;;-7.12;75.30
76590;BME280;65471;55.908;37.880;2023-11-21T10:08:08;99451.28;;;-7.08;74.49
76590;BME280;65471;55.908;37.880;2023-11-21T10:10:46;99446.03;;;-7.08;74.59
76590;BME280;65471;55.908;37.880;2023-11-21T10:13:17;99432.75;;;-7.06;74.65
76590;BME280;65471;55.908;37.880;2023-11-21T10:15:50;99436.22;;;-7.06;74.11
76590;BME280;65471;55.908;37.880;2023-11-21T10:18:17;99439.34;;;-7.12;74.62
76590;BME280;65471;55.908;37.880;2023-11-21T10:20:45;99432.94;;;-7.19;74.00
76590;BME280;65471;55.908;37.880;2023-11-21T10:23:21;99440.09;;;-7.21;74.96
76590;BME280;65471;55.908;37.880;2023-11-21T10:25:51;99416.47;;;-7.21;75.15
76590;BME280;65471;55.908;37.880;2023-11-21T10:28:19;99417.31;;;-7.21;74.57
76590;BME280;65471;55.908;37.880;2023-11-21T10:30:48;99428.63;;;-7.20;74.66
76590;BME280;65471;55.908;37.880;2023-11-21T10:33:15;99429.03;;;-7.25;74.75
76590;BME280;65471;55.908;37.880;2023-11-21T10:35:46;99436.06;;;-7.25;74.88
76590;BME280;65471;55.908;37.880;2023-11-21T10:38:22;99426.28;;;-7.23;74.55
76590;BME280;65471;55.908;37.880;2023-11-21T10:40:51;99427.69;;;-7.19;74.17
76590;BME280;65471;55.908;37.880;2023-11-21T10:43:19;99426.47;;;-7.15;74.77
76590;BME280;65471;55.908;37.880;2023-11-21T10:45:47;99428.59;;;-7.09;74.52
76590;BME280;65471;55.908;37.880;2023-11-21T10:48:14;99430.13;;;-7.06;74.75
76590;BME280;65471;55.908;37.880;2023-11-21T10:50:46;99427.81;;;-7.00;73.86
76590;BME280;65471;55.908;37.880;2023-11-21T10:53:14;99428.19;;;-7.04;74.44
76590;BME280;65471;55.908;37.880;2023-11-21T10:55:42;99437.63;;;-7.02;73.90
76590;BME280;65471;55.908;37.880;2023-11-21T10:58:13;99430.00;;;-7.05;74.00
76590;BME280;65471;55.908;37.880;2023-11-21T11:00:41;99431.69;;;-7.04;74.38
76590;BME280;65471;55.908;37.880;2023-11-21T11:03:10;99430.44;;;-7.00;74.36
76590;BME280;65471;55.908;37.880;2023-11-21T11:05:44;99436.88;;;-6.92;74.27
76590;BME280;65471;55.908;37.880;2023-11-21T11:08:21;99430.38;;;-6.88;73.98
76590;BME280;65471;55.908;37.880;2023-11-21T11:10:55;99440.53;;;-6.84;73.71
76590;BME280;65471;55.908;37.880;2023-11-21T11:13:22;99440.66;;;-6.85;74.58
76590;BME280;65471;55.908;37.880;2023-11-21T11:15:58;99441.63;;;-6.86;73.71
76590;BME280;65471;55.908;37.880;2023-11-21T11:18:29;99438.53;;;-6.91;74.49
76590;BME280;65471;55.908;37.880;2023-11-21T11:26:51;99447.31;;;-6.81;74.41
76590;BME280;65471;55.908;37.880;2023-11-21T11:29:34;99447.56;;;-6.84;74.28
76590;BME280;65471;55.908;37.880;2023-11-21T11:35:10;99450.72;;;-6.90;74.88
76590;BME280;65471;55.908;37.880;2023-11-21T11:37:43;99464.53;;;-6.88;74.46
76590;BME280;65471;55.908;37.880;2023-11-21T11:40:11;99457.13;;;-6.83;74.75
76590;BME280;65471;55.908;37.880;2023-11-21T11:42:38;99459.06;;;-6.85;74.68
76590;BME280;65471;55.908;37.880;2023-11-21T11:45:26;99457.66;;;-6.89;74.81
76590;BME280;65471;55.908;37.880;2023-11-21T11:48:00;99457.66;;;-6.89;75.13
76590;BME280;65471;55.908;37.880;2023-11-21T11:50:27;99452.38;;;-6.89;75.19
76590;BME280;65471;55.908;37.880;2023-11-21T11:52:55;99450.03;;;-6.92;74.96
76590;BME280;65471;55.908;37.880;2023-11-21T11:55:24;99458.66;;;-7.02;74.51
76590;BME280;65471;55.908;37.880;2023-11-21T11:57:53;99453.53;;;-7.03;75.34
76590;BME280;65471;55.908;37.880;2023-11-21T12:03:11;99462.78;;;-7.20;74.66
76590;BME280;65471;55.908;37.880;2023-11-21T12:05:38;99464.94;;;-7.25;75.60
76590;BME280;65471;55.908;37.880;2023-11-21T12:08:08;99459.94;;;-7.29;75.55
76590;BME280;65471;55.908;37.880;2023-11-21T12:10:38;99456.50;;;-7.29;75.12
76590;BME280;65471;55.908;37.880;2023-11-21T12:13:10;99459.00;;;-7.28;74.96
76590;BME280;65471;55.908;37.880;2023-11-21T12:15:39;99470.06;;;-7.24;74.88
76590;BME280;65471;55.908;37.880;2023-11-21T12:18:08;99461.75;;;-7.29;74.63
76590;BME280;65471;55.908;37.880;2023-11-21T12:20:35;99472.25;;;-7.29;74.90
76590;BME280;65471;55.908;37.880;2023-11-21T12:23:07;99477.78;;;-7.32;74.68
76590;BME280;65471;55.908;37.880;2023-11-21T12:25:36;99481.34;;;-7.33;74.33
76590;BME280;65471;55.908;37.880;2023-11-21T12:28:04;99477.41;;;-7.39;74.79
76590;BME280;65471;55.908;37.880;2023-11-21T12:30:34;99487.31;;;-7.42;74.58
76590;BME280;65471;55.908;37.880;2023-11-21T12:33:06;99488.31;;;-7.43;75.13
76590;BME280;65471;55.908;37.880;2023-11-21T12:35:36;99485.56;;;-7.42;75.31
76590;BME280;65471;55.908;37.880;2023-11-21T12:38:04;99489.84;;;-7.41;75.33
76590;BME280;65471;55.908;37.880;2023-11-21T12:40:32;99486.00;;;-7.37;75.64
76590;BME280;65471;55.908;37.880;2023-11-21T12:43:00;99489.47;;;-7.36;75.60
76590;BME280;65471;55.908;37.880;2023-11-21T12:45:29;99485.31;;;-7.39;75.40
76590;BME280;65471;55.908;37.880;2023-11-21T12:48:04;99491.75;;;-7.43;75.91
76590;BME280;65471;55.908;37.880;2023-11-21T12:50:36;99497.25;;;-7.46;76.02
76590;BME280;65471;55.908;37.880;2023-11-21T12:53:07;99494.28;;;-7.53;76.02
76590;BME280;65471;55.908;37.880;2023-11-21T12:55:39;99484.84;;;-7.55;76.09
76590;BME280;65471;55.908;37.880;2023-11-21T12:58:09;99492.72;;;-7.55;76.49
76590;BME280;65471;55.908;37.880;2023-11-21T13:00:39;99488.56;;;-7.58;76.14
76590;BME280;65471;55.908;37.880;2023-11-21T13:03:10;99497.16;;;-7.56;76.44
76590;BME280;65471;55.908;37.880;2023-11-21T13:05:40;99497.88;;;-7.54;76.45
76590;BME280;65471;55.908;37.880;2023-11-21T13:08:18;99497.75;;;-7.52;75.97